Time;durP1;ratioP1;P1;durP2;ratioP2;P2;SDS_P1;SDS_P2;PMS_P1;PMS_P2;Temp;Humidity;BMP_temperature;BMP_pressure;BME280_temperature;BME280_humidity;BME280_pressure;Samples;Min_cycle;Max_cycle;Signal;HPM_P1;HPM_P2
2021/01/04 00:02:09;;;;;;;10.10;4.85;;;4.20;99.90;;;;;;5019371;28;20037;-82
2021/01/04 00:05:06;;;;;;;9.65;5.28;;;4.30;99.90;;;;;;5013055;28;20018;-82
2021/01/04 00:08:05;;;;;;;12.70;4.95;;;4.30;99.90;;;;;;5008970;28;20026;-81
2021/01/04 00:10:58;;;;;;;9.10;5.00;;;4.30;99.90;;;;;;5010249;28;20424;-80
2021/01/04 00:13:32;;;;;;;13.20;5.47;;;4.30;99.90;;;;;;5001138;28;20384;-81
2021/01/04 00:16:30;;;;;;;7.22;4.47;;;4.30;99.90;;;;;;5016925;28;20052;-82
2021/01/04 00:19:06;;;;;;;13.15;5.43;;;4.30;99.90;;;;;;5014010;28;20042;-80
2021/01/04 00:21:51;;;;;;;9.65;5.35;;;4.30;99.90;;;;;;5015795;28;20026;-80
2021/01/04 00:24:32;;;;;;;10.27;5.00;;;4.30;99.90;;;;;;5010439;28;20049;-82
2021/01/04 00:27:20;;;;;;;7.20;4.75;;;4.30;99.90;;;;;;4998018;28;20072;-80
2021/01/04 00:29:47;;;;;;;14.50;6.20;;;4.30;99.90;;;;;;4993381;28;20034;-83
2021/01/04 00:32:30;;;;;;;8.68;5.15;;;4.40;99.90;;;;;;5014884;28;20033;-81
2021/01/04 00:35:01;;;;;;;10.65;5.25;;;4.30;99.90;;;;;;4998479;28;20034;-83
2021/01/04 00:38:00;;;;;;;9.32;4.70;;;4.30;99.90;;;;;;5015670;28;20029;-81
2021/01/04 00:40:59;;;;;;;9.77;4.45;;;4.20;99.90;;;;;;5013038;28;20490;-82
2021/01/04 00:43:34;;;;;;;10.82;4.90;;;4.20;99.90;;;;;;4998066;28;20117;-80
2021/01/04 00:46:00;;;;;;;9.75;5.03;;;4.20;99.90;;;;;;5001288;28;20492;-80
2021/01/04 00:48:28;;;;;;;11.43;4.35;;;4.20;99.90;;;;;;5017709;28;20478;-80
2021/01/04 00:50:57;;;;;;;;;;;4.20;99.90;;;;;;5020389;28;20498;-80
2021/01/04 00:53:45;;;;;;;11.38;4.88;;;4.20;99.90;;;;;;5018825;28;19955;-82
2021/01/04 00:56:29;;;;;;;;;;;4.10;99.90;;;;;;5016266;28;20034;-80
2021/01/04 00:59:14;;;;;;;8.13;4.65;;;4.10;99.90;;;;;;5033024;28;20026;-82
2021/01/04 01:01:49;;;;;;;7.03;4.63;;;4.10;99.90;;;;;;5016966;28;20072;-81
2021/01/04 01:04:16;;;;;;;11.18;4.93;;;4.10;99.90;;;;;;5020217;28;20205;-81
2021/01/04 01:07:08;;;;;;;8.80;4.80;;;4.10;99.90;;;;;;5034805;28;20022;-82
2021/01/04 01:09:39;;;;;;;6.78;4.25;;;4.10;99.90;;;;;;5028595;28;20053;-80
2021/01/04 01:12:36;;;;;;;8.10;4.45;;;4.00;99.90;;;;;;5039407;28;20037;-82
2021/01/04 01:15:18;;;;;;;8.80;4.30;;;4.00;99.90;;;;;;5023467;28;20023;-81
2021/01/04 01:18:14;;;;;;;8.85;4.50;;;4.10;99.90;;;;;;5032749;28;20077;-81
2021/01/04 01:20:45;;;;;;;11.73;4.63;;;4.10;99.90;;;;;;5011875;28;20022;-81
2021/01/04 01:23:11;;;;;;;7.60;4.68;;;4.10;99.90;;;;;;5015957;28;20041;-82
2021/01/04 01:25:49;;;;;;;6.43;4.72;;;4.20;99.90;;;;;;5016357;28;20522;-81
2021/01/04 01:28:29;;;;;;;11.32;4.18;;;4.10;99.90;;;;;;5014240;28;20053;-82
2021/01/04 01:31:16;;;;;;;8.85;5.00;;;4.10;99.90;;;;;;4997955;28;20042;-81
2021/01/04 01:34:00;;;;;;;7.47;4.72;;;4.00;99.90;;;;;;4994363;28;20033;-82
2021/01/04 01:36:48;;;;;;;9.95;5.50;;;3.90;99.90;;;;;;5020784;28;20033;-81
2021/01/04 01:39:33;;;;;;;7.55;4.35;;;3.80;99.90;;;;;;5014141;28;20034;-81
2021/01/04 01:42:36;;;;;;;13.55;5.80;;;3.90;99.90;;;;;;4994150;28;20612;-84
2021/01/04 01:45:19;;;;;;;14.70;5.43;;;3.90;99.90;;;;;;4980002;28;20565;-81
2021/01/04 01:48:01;;;;;;;8.30;5.03;;;4.00;99.90;;;;;;5001938;28;20277;-83
2021/01/04 01:50:46;;;;;;;7.95;4.70;;;4.00;99.90;;;;;;4997578;28;20084;-83
2021/01/04 01:53:29;;;;;;;9.02;4.93;;;3.90;99.90;;;;;;5011713;28;20244;-81
2021/01/04 01:56:18;;;;;;;7.43;4.28;;;3.80;99.90;;;;;;5011553;28;20072;-82
2021/01/04 01:58:49;;;;;;;7.68;4.35;;;3.80;99.90;;;;;;5001040;28;20037;-80
2021/01/04 02:01:47;;;;;;;7.60;4.50;;;3.80;99.90;;;;;;5015770;28;20379;-82
2021/01/04 02:04:29;;;;;;;11.77;5.28;;;3.80;99.90;;;;;;5011373;28;20041;-81
2021/01/04 02:07:03;;;;;;;8.60;4.72;;;3.80;99.90;;;;;;5014374;28;20026;-80
2021/01/04 02:09:39;;;;;;;7.85;4.63;;;3.80;99.90;;;;;;5006076;28;20562;-80
2021/01/04 02:12:41;;;;;;;9.52;5.32;;;3.80;99.90;;;;;;5015431;28;20149;-80
2021/01/04 02:15:23;;;;;;;7.85;4.47;;;3.80;99.90;;;;;;5014550;28;20037;-81
2021/01/04 02:18:17;;;;;;;9.32;5.22;;;3.80;99.90;;;;;;5012885;28;20042;-80
2021/01/04 02:21:34;;;;;;;9.02;4.72;;;3.80;99.90;;;;;;5011307;28;20030;-81
2021/01/04 02:24:23;;;;;;;9.13;4.75;;;3.90;99.90;;;;;;4995686;28;20057;-81
2021/01/04 02:27:04;;;;;;;9.68;5.20;;;3.80;99.90;;;;;;4998140;28;20064;-81
2021/01/04 02:29:30;;;;;;;10.40;5.45;;;3.80;99.90;;;;;;5010184;28;20028;-81
2021/01/04 02:31:59;;;;;;;9.65;4.88;;;3.80;99.90;;;;;;5016822;28;20041;-82
2021/01/04 02:34:30;;;;;;;8.30;4.93;;;3.90;99.90;;;;;;5018792;28;20021;-80
2021/01/04 02:36:58;;;;;;;11.23;4.68;;;3.80;99.90;;;;;;5033963;28;20025;-81
2021/01/04 02:39:45;;;;;;;10.50;5.40;;;3.70;99.90;;;;;;5024634;28;20022;-81
2021/01/04 02:42:39;;;;;;;10.13;4.93;;;3.70;99.90;;;;;;5030315;28;20057;-81
2021/01/04 02:45:25;;;;;;;11.68;4.95;;;3.70;99.90;;;;;;5031958;28;20045;-81
2021/01/04 02:48:30;;;;;;;11.25;5.20;;;3.80;99.90;;;;;;5029116;28;20045;-80
2021/01/04 02:51:15;;;;;;;7.45;4.55;;;3.80;99.90;;;;;;5008431;28;20030;-80
2021/01/04 02:54:05;;;;;;;9.75;5.75;;;3.80;99.90;;;;;;4998657;28;20038;-81
2021/01/04 02:56:43;;;;;;;8.43;4.57;;;3.80;99.90;;;;;;5010990;28;20076;-82
2021/01/04 02:59:37;;;;;;;9.57;4.33;;;3.70;99.90;;;;;;5011584;28;20061;-80
2021/01/04 03:02:04;;;;;;;9.02;4.72;;;3.70;99.90;;;;;;5019875;28;20034;-79
2021/01/04 03:04:32;;;;;;;9.98;5.00;;;3.70;99.90;;;;;;5006201;28;20041;-80
2021/01/04 03:07:02;;;;;;;;;;;3.80;99.90;;;;;;5013669;28;20018;-80
2021/01/04 03:09:36;;;;;;;13.38;4.70;;;3.80;99.90;;;;;;5014604;28;19917;-80
2021/01/04 03:12:08;;;;;;;10.52;5.30;;;3.80;99.90;;;;;;5008529;28;20122;-80
2021/01/04 03:14:49;;;;;;;9.05;5.05;;;3.80;99.90;;;;;;5013531;28;20363;-80
2021/01/04 03:17:37;;;;;;;10.02;4.68;;;3.80;99.90;;;;;;5018375;28;20018;-81
2021/01/04 03:20:09;;;;;;;8.68;5.45;;;3.80;99.90;;;;;;5015417;28;20099;-81
2021/01/04 03:22:36;;;;;;;8.13;5.10;;;3.80;99.90;;;;;;5013863;28;20069;-80
2021/01/04 03:25:03;;;;;;;8.30;5.53;;;3.80;99.90;;;;;;5014212;28;20061;-79
2021/01/04 03:27:31;;;;;;;6.22;4.88;;;3.90;99.90;;;;;;4995302;28;20599;-79
2021/01/04 03:29:57;;;;;;;10.82;5.45;;;3.90;99.90;;;;;;5013121;28;20034;-79
2021/01/04 03:32:23;;;;;;;10.90;5.15;;;3.80;99.90;;;;;;4992161;28;20038;-80
2021/01/04 03:34:50;;;;;;;10.52;5.68;;;3.90;99.90;;;;;;4993106;28;20398;-80
2021/01/04 03:37:17;;;;;;;8.27;5.22;;;3.90;99.90;;;;;;5006295;28;20038;-80
2021/01/04 03:39:44;;;;;;;6.97;4.90;;;3.90;99.90;;;;;;4994323;28;20046;-78
2021/01/04 03:42:11;;;;;;;6.50;3.80;;;3.80;99.90;;;;;;4994142;28;20585;-79
2021/01/04 03:44:38;;;;;;;10.10;5.93;;;3.80;99.90;;;;;;4996563;28;20073;-79
2021/01/04 03:47:04;;;;;;;8.27;5.57;;;3.90;99.90;;;;;;4986393;28;20483;-80
2021/01/04 03:49:29;;;;;;;13.18;6.28;;;3.90;99.90;;;;;;5001744;28;20041;-80
2021/01/04 03:51:58;;;;;;;10.85;6.18;;;3.90;99.90;;;;;;5012942;28;20081;-78
2021/01/04 03:54:26;;;;;;;8.80;5.10;;;3.90;99.90;;;;;;5010358;28;20486;-80
2021/01/04 03:56:52;;;;;;;10.88;5.18;;;3.80;99.90;;;;;;5017625;28;20081;-78
2021/01/04 03:59:19;;;;;;;9.05;5.28;;;3.80;99.90;;;;;;5016572;28;20030;-79
2021/01/04 04:01:56;;;;;;;10.70;5.53;;;3.90;99.90;;;;;;5021320;28;20010;-79
2021/01/04 04:04:23;;;;;;;11.65;4.95;;;3.80;99.90;;;;;;5035436;28;20053;-79
2021/01/04 04:06:49;;;;;;;7.97;4.80;;;3.90;99.90;;;;;;5037507;28;20033;-79
2021/01/04 04:09:21;;;;;;;9.25;4.38;;;3.90;99.90;;;;;;5030349;28;20046;-76
2021/01/04 04:11:47;;;;;;;12.82;5.00;;;3.90;99.90;;;;;;5016352;28;20181;-79
2021/01/04 04:14:16;;;;;;;10.85;5.18;;;3.80;99.90;;;;;;5031249;28;20121;-81
2021/01/04 04:16:42;;;;;;;7.05;4.80;;;3.80;99.90;;;;;;5015816;28;20026;-80
2021/01/04 04:19:09;;;;;;;12.15;5.30;;;3.80;99.90;;;;;;5018206;28;20109;-79
2021/01/04 04:21:35;;;;;;;9.32;4.45;;;3.90;99.90;;;;;;5016327;28;20045;-79
2021/01/04 04:24:01;;;;;;;11.95;4.55;;;3.90;99.90;;;;;;5014573;28;20041;-80
2021/01/04 04:26:30;;;;;;;8.20;4.28;;;3.80;99.90;;;;;;5014730;28;20026;-79
2021/01/04 04:28:56;;;;;;;10.52;4.30;;;3.90;99.90;;;;;;5016223;28;20026;-79
2021/01/04 04:31:23;;;;;;;8.73;4.85;;;3.90;99.90;;;;;;5017880;28;20030;-80
2021/01/04 04:33:49;;;;;;;7.95;4.45;;;3.90;99.90;;;;;;5017202;28;20041;-79
2021/01/04 04:36:27;;;;;;;8.90;5.45;;;3.80;99.90;;;;;;5011897;28;20137;-79
2021/01/04 04:38:52;;;;;;;;;;;3.80;99.90;;;;;;5014305;28;20026;-80
2021/01/04 04:41:29;;;;;;;9.30;5.05;;;3.70;99.90;;;;;;5015784;28;19940;-79
2021/01/04 04:44:07;;;;;;;8.38;4.55;;;3.80;99.90;;;;;;5015106;28;20080;-80
2021/01/04 04:46:43;;;;;;;8.93;4.82;;;3.90;99.90;;;;;;5003751;28;20039;-80
2021/01/04 04:49:22;;;;;;;10.80;4.57;;;3.90;99.90;;;;;;5009552;28;20098;-79
2021/01/04 04:52:03;;;;;;;13.80;4.93;;;3.80;99.90;;;;;;5016019;28;20077;-80
2021/01/04 04:54:37;;;;;;;9.95;4.45;;;3.90;99.90;;;;;;5018434;28;20037;-79
2021/01/04 04:57:11;;;;;;;6.35;4.35;;;3.90;99.90;;;;;;5015588;28;20113;-78
2021/01/04 04:59:51;;;;;;;9.35;4.30;;;3.90;99.90;;;;;;5014142;28;20038;-78
2021/01/04 05:02:54;;;;;;;8.60;3.95;;;3.90;99.90;;;;;;4998376;28;20385;-79
2021/01/04 05:05:36;;;;;;;7.63;4.45;;;3.90;99.90;;;;;;5003424;28;20375;-80
2021/01/04 05:08:13;;;;;;;12.65;5.35;;;3.80;99.90;;;;;;5014689;28;20049;-78
2021/01/04 05:10:44;;;;;;;7.20;4.18;;;3.80;99.90;;;;;;4999756;28;20073;-80
2021/01/04 05:13:28;;;;;;;11.10;4.65;;;3.80;99.90;;;;;;5013234;28;20026;-79
2021/01/04 05:16:05;;;;;;;8.65;5.00;;;3.80;99.90;;;;;;5016001;28;20049;-79
2021/01/04 05:18:49;;;;;;;7.03;4.63;;;3.90;99.90;;;;;;5012920;28;20470;-79
2021/01/04 05:21:21;;;;;;;7.68;4.80;;;3.90;99.90;;;;;;5002907;28;20121;-79
2021/01/04 05:24:24;;;;;;;9.38;4.85;;;3.90;99.90;;;;;;5014264;28;20048;-80
2021/01/04 05:27:17;;;;;;;9.93;4.80;;;3.80;99.90;;;;;;5006793;28;20072;-79
2021/01/04 05:30:02;;;;;;;7.75;4.82;;;3.90;99.90;;;;;;5022730;28;20030;-80
2021/01/04 05:32:44;;;;;;;9.32;4.78;;;4.00;99.90;;;;;;5036046;28;20060;-79
2021/01/04 05:35:12;;;;;;;10.60;4.72;;;4.10;99.90;;;;;;5032204;28;20045;-78
2021/01/04 05:37:42;;;;;;;;;;;4.20;99.90;;;;;;5030435;28;20015;-80
2021/01/04 05:40:33;;;;;;;9.38;4.82;;;4.20;99.90;;;;;;5033973;28;19945;-79
2021/01/04 05:43:17;;;;;;;11.75;4.70;;;4.20;99.90;;;;;;5022342;28;20042;-80
2021/01/04 05:45:55;;;;;;;9.43;4.55;;;4.20;99.90;;;;;;5015811;28;20030;-80
2021/01/04 05:48:30;;;;;;;10.18;5.10;;;4.20;99.90;;;;;;5015973;28;20038;-79
2021/01/04 05:51:05;;;;;;;12.65;4.93;;;4.20;99.90;;;;;;5016678;28;20071;-79
2021/01/04 05:53:31;;;;;;;7.20;4.13;;;4.10;99.90;;;;;;5015262;28;20436;-78
2021/01/04 05:55:59;;;;;;;11.27;5.28;;;4.20;99.90;;;;;;5015262;28;20037;-79
2021/01/04 05:58:32;;;;;;;10.75;4.72;;;4.20;99.90;;;;;;5015578;28;20490;-79
2021/01/04 06:01:24;;;;;;;8.18;5.03;;;4.10;99.90;;;;;;5013663;28;20109;-79
2021/01/04 06:04:01;;;;;;;9.13;5.00;;;4.00;99.90;;;;;;5015376;28;20386;-79
2021/01/04 06:06:53;;;;;;;9.73;4.37;;;4.10;99.90;;;;;;5014354;28;20041;-78
2021/01/04 06:09:19;;;;;;;9.38;4.85;;;4.10;99.90;;;;;;5007616;28;20041;-80
2021/01/04 06:12:00;;;;;;;8.85;4.75;;;4.10;99.90;;;;;;5013742;28;20490;-80
2021/01/04 06:14:31;;;;;;;10.80;4.90;;;4.10;99.90;;;;;;5015233;28;20551;-79
2021/01/04 06:17:02;;;;;;;10.43;4.20;;;4.20;99.90;;;;;;5013541;28;20034;-79
2021/01/04 06:19:32;;;;;;;9.15;4.57;;;4.10;99.90;;;;;;5012902;28;20030;-79
2021/01/04 06:22:06;;;;;;;7.65;4.65;;;4.10;99.90;;;;;;5012785;28;20018;-79
2021/01/04 06:24:35;;;;;;;7.88;4.40;;;4.20;99.90;;;;;;5004558;28;20038;-79
2021/01/04 06:27:15;;;;;;;8.93;4.90;;;4.20;99.90;;;;;;5019151;28;20042;-79
2021/01/04 06:29:43;;;;;;;8.73;4.80;;;4.20;99.90;;;;;;5026398;28;20034;-80
2021/01/04 06:32:21;;;;;;;8.65;4.50;;;4.20;99.90;;;;;;5011103;28;20560;-81
2021/01/04 06:34:54;;;;;;;10.23;5.45;;;4.20;99.90;;;;;;5012600;28;20045;-80
2021/01/04 06:37:23;;;;;;;10.75;4.95;;;4.10;99.90;;;;;;5010934;28;20514;-80
2021/01/04 06:40:16;;;;;;;8.68;4.68;;;4.20;99.90;;;;;;5010602;28;20387;-79
2021/01/04 06:42:43;;;;;;;13.30;5.38;;;4.30;99.90;;;;;;5011246;28;20172;-81
2021/01/04 06:45:37;;;;;;;15.07;5.77;;;4.20;99.90;;;;;;5007297;28;20029;-80
2021/01/04 06:48:13;;;;;;;14.82;4.85;;;4.10;99.90;;;;;;5026012;28;20270;-80
2021/01/04 06:51:07;;;;;;;11.15;4.57;;;4.20;99.90;;;;;;5013945;28;20010;-80
2021/01/04 06:53:41;;;;;;;10.65;5.25;;;4.20;99.90;;;;;;5011350;28;20080;-80
2021/01/04 06:56:26;;;;;;;9.60;4.05;;;4.20;99.90;;;;;;5023648;28;20124;-79
2021/01/04 06:59:12;;;;;;;10.63;4.75;;;4.10;99.90;;;;;;5031811;28;20034;-79
2021/01/04 07:01:40;;;;;;;8.27;5.00;;;4.00;99.90;;;;;;5049115;28;20034;-80
2021/01/04 07:04:45;;;;;;;7.05;4.78;;;4.00;99.90;;;;;;5012972;28;20149;-79
2021/01/04 07:07:35;;;;;;;10.32;4.82;;;4.10;99.90;;;;;;5001880;28;20058;-83
2021/01/04 07:10:21;;;;;;;11.63;4.97;;;4.00;99.90;;;;;;4999927;28;20486;-80
2021/01/04 07:13:37;;;;;;;9.75;5.20;;;4.00;99.90;;;;;;4981760;28;20042;-82
2021/01/04 07:16:54;;;;;;;9.38;4.63;;;4.00;99.90;;;;;;4962484;28;20034;-82
2021/01/04 07:19:47;;;;;;;7.55;4.65;;;4.10;99.90;;;;;;4976826;28;20046;-84
2021/01/04 07:22:35;;;;;;;12.23;4.82;;;4.00;99.90;;;;;;4982458;28;20042;-85
2021/01/04 07:25:46;;;;;;;8.38;4.15;;;4.10;99.90;;;;;;4981421;28;20491;-83
2021/01/04 07:28:44;;;;;;;7.72;4.80;;;4.00;99.90;;;;;;4991876;28;20121;-82
2021/01/04 07:31:35;;;;;;;10.55;4.35;;;4.00;99.90;;;;;;4984648;28;20121;-80
2021/01/04 07:34:26;;;;;;;9.15;4.50;;;4.00;99.90;;;;;;4980633;28;20080;-83
2021/01/04 07:36:58;;;;;;;8.63;5.57;;;4.00;99.90;;;;;;5009949;28;20465;-82
2021/01/04 07:39:48;;;;;;;9.48;4.80;;;4.00;99.90;;;;;;5000383;28;20080;-83
2021/01/04 07:42:45;;;;;;;10.02;4.95;;;4.00;99.90;;;;;;5012982;28;20034;-83
2021/01/04 07:45:23;;;;;;;13.73;4.40;;;4.00;99.90;;;;;;4999708;28;20074;-83
2021/01/04 07:48:02;;;;;;;11.65;5.78;;;4.10;99.90;;;;;;5014650;28;20101;-82
2021/01/04 07:50:52;;;;;;;7.95;5.47;;;4.10;99.90;;;;;;5015535;28;20045;-82
2021/01/04 07:53:36;;;;;;;8.98;4.65;;;4.10;99.90;;;;;;5006903;28;20041;-84
2021/01/04 07:56:30;;;;;;;10.35;5.30;;;4.20;99.90;;;;;;5012414;28;20044;-79
2021/01/04 07:59:18;;;;;;;8.10;5.35;;;4.10;99.90;;;;;;5010668;28;20037;-78
2021/01/04 08:02:08;;;;;;;11.70;5.25;;;4.20;99.90;;;;;;4998776;28;20497;-83
2021/01/04 08:04:46;;;;;;;9.70;5.22;;;4.20;99.90;;;;;;5012483;28;20105;-84
2021/01/04 08:07:32;;;;;;;;;;;4.20;99.90;;;;;;5010907;28;20018;-84
2021/01/04 08:10:30;;;;;;;8.88;4.82;;;4.30;99.90;;;;;;5003104;28;19917;-84
2021/01/04 08:13:22;;;;;;;10.25;5.38;;;4.30;99.90;;;;;;5014113;28;20076;-83
2021/01/04 08:15:54;;;;;;;9.07;4.25;;;4.20;99.90;;;;;;5013086;28;20088;-83
2021/01/04 08:18:24;;;;;;;10.38;5.93;;;4.20;99.90;;;;;;5015020;28;20030;-84
2021/01/04 08:21:00;;;;;;;9.77;5.00;;;4.30;99.90;;;;;;5014251;28;20034;-83
2021/01/04 08:23:54;;;;;;;11.25;6.22;;;4.30;99.90;;;;;;5015721;28;20094;-80
2021/01/04 08:26:39;;;;;;;10.52;5.55;;;4.20;99.90;;;;;;5034300;28;20032;-83
2021/01/04 08:29:15;;;;;;;10.38;5.13;;;4.30;99.90;;;;;;5021969;28;20030;-84
2021/01/04 08:32:18;;;;;;;7.93;4.55;;;4.40;99.90;;;;;;5037520;28;20121;-82
2021/01/04 08:34:46;;;;;;;10.52;4.50;;;4.40;99.90;;;;;;5032717;28;20053;-80
2021/01/04 08:37:17;;;;;;;6.95;4.22;;;4.40;99.90;;;;;;5026000;28;20084;-83
2021/01/04 08:39:50;;;;;;;12.98;5.13;;;4.40;99.90;;;;;;5018024;28;20040;-83
2021/01/04 08:42:28;;;;;;;6.68;4.20;;;4.40;99.90;;;;;;5016013;28;20064;-83
2021/01/04 08:45:15;;;;;;;8.75;5.28;;;4.50;99.90;;;;;;5018783;28;20125;-83
2021/01/04 08:47:51;;;;;;;7.60;4.55;;;4.30;99.90;;;;;;5015310;28;20037;-80
2021/01/04 08:50:33;;;;;;;8.98;4.88;;;4.40;99.90;;;;;;5010278;28;20125;-83
2021/01/04 08:53:21;;;;;;;12.55;5.32;;;4.40;99.90;;;;;;5014145;28;20066;-85
2021/01/04 08:55:47;;;;;;;;;;;4.30;99.90;;;;;;5011323;28;20587;-81
2021/01/04 08:58:32;;;;;;;11.13;4.90;;;4.30;99.90;;;;;;5015460;28;20032;-82
2021/01/04 09:01:06;;;;;;;10.65;5.30;;;4.30;99.90;;;;;;5016026;28;20503;-80
2021/01/04 09:03:35;;;;;;;11.50;4.95;;;4.40;99.90;;;;;;5011201;28;20017;-82
2021/01/04 09:06:13;;;;;;;12.15;5.25;;;4.40;99.90;;;;;;5010225;28;20050;-81
2021/01/04 09:08:47;;;;;;;9.45;4.45;;;4.40;99.90;;;;;;5015868;28;20076;-81
2021/01/04 09:11:15;;;;;;;9.82;4.68;;;4.40;99.90;;;;;;5014414;28;20033;-81
2021/01/04 09:13:42;;;;;;;7.15;3.83;;;4.40;99.90;;;;;;5010028;28;20391;-81
2021/01/04 09:16:29;;;;;;;7.07;4.35;;;4.50;99.90;;;;;;5010695;28;20399;-80
2021/01/04 09:19:05;;;;;;;10.18;4.03;;;4.60;99.90;;;;;;5014702;28;20033;-82
2021/01/04 09:21:35;;;;;;;8.35;4.35;;;4.60;99.90;;;;;;5008574;28;20556;-82
2021/01/04 09:24:09;;;;;;;8.73;4.60;;;4.70;99.90;;;;;;5011298;28;20550;-82
2021/01/04 09:26:39;;;;;;;9.57;5.00;;;4.60;99.90;;;;;;5014244;28;20042;-81
2021/01/04 09:29:13;;;;;;;7.22;4.20;;;4.70;99.90;;;;;;5009118;28;20048;-83
2021/01/04 09:31:52;;;;;;;7.05;3.63;;;4.80;99.90;;;;;;5012301;28;20038;-81
2021/01/04 09:34:18;;;;;;;8.85;5.00;;;4.80;99.90;;;;;;5006253;28;20108;-81
2021/01/04 09:36:45;;;;;;;9.63;3.78;;;4.80;99.90;;;;;;5013581;28;20030;-82
2021/01/04 09:39:13;;;;;;;7.45;3.80;;;4.90;99.90;;;;;;5000019;28;20034;-80
2021/01/04 09:41:42;;;;;;;6.60;3.38;;;4.80;99.90;;;;;;5008498;28;20030;-82
2021/01/04 09:44:19;;;;;;;9.15;4.53;;;4.70;99.90;;;;;;5003946;28;20065;-81
2021/01/04 09:46:49;;;;;;;10.70;4.20;;;4.60;99.90;;;;;;5009968;28;20053;-83
2021/01/04 09:49:50;;;;;;;5.82;3.53;;;4.70;99.90;;;;;;5016987;28;20498;-83
2021/01/04 09:52:35;;;;;;;10.25;3.83;;;4.60;99.90;;;;;;5027916;28;20018;-82
2021/01/04 09:55:08;;;;;;;6.25;2.92;;;4.70;99.90;;;;;;5028997;28;20064;-80
2021/01/04 09:57:45;;;;;;;8.68;3.88;;;4.70;99.90;;;;;;5030077;28;20056;-81
2021/01/04 10:00:20;;;;;;;8.05;3.45;;;4.70;99.90;;;;;;5021928;28;20025;-81
2021/01/04 10:02:47;;;;;;;5.90;3.42;;;4.50;99.90;;;;;;5012761;28;20034;-82
2021/01/04 10:05:15;;;;;;;4.68;3.33;;;4.60;99.90;;;;;;5006563;28;20026;-81
2021/01/04 10:07:43;;;;;;;4.82;3.38;;;4.60;99.90;;;;;;5005894;28;20029;-82
2021/01/04 10:10:20;;;;;;;6.15;3.63;;;4.60;99.90;;;;;;5011884;28;20038;-80
2021/01/04 10:12:46;;;;;;;7.60;3.42;;;4.60;99.90;;;;;;5019522;28;20519;-82
2021/01/04 10:15:24;;;;;;;6.97;2.72;;;4.70;99.90;;;;;;5008877;28;20026;-82
2021/01/04 10:18:15;;;;;;;5.00;3.30;;;4.60;99.90;;;;;;5007273;28;20041;-83
2021/01/04 10:20:49;;;;;;;5.43;3.75;;;4.50;99.90;;;;;;5016023;28;20038;-83
2021/01/04 10:23:30;;;;;;;6.90;3.20;;;4.50;99.90;;;;;;5015438;28;20122;-82
2021/01/04 10:25:58;;;;;;;4.15;3.08;;;4.50;99.90;;;;;;5013521;28;20139;-82
2021/01/04 10:28:35;;;;;;;4.72;3.20;;;4.50;99.90;;;;;;5013956;28;20089;-80
2021/01/04 10:31:06;;;;;;;8.02;3.28;;;4.50;99.90;;;;;;5013951;28;20079;-82
2021/01/04 10:33:38;;;;;;;9.48;4.95;;;4.50;99.90;;;;;;5013676;28;20038;-82
2021/01/04 10:36:17;;;;;;;6.50;3.47;;;4.50;99.90;;;;;;5013374;28;20143;-81
2021/01/04 10:39:00;;;;;;;3.40;2.50;;;4.40;99.90;;;;;;5005744;28;20038;-81
2021/01/04 10:41:35;;;;;;;10.05;3.70;;;4.40;99.90;;;;;;5007859;28;20536;-83
2021/01/04 10:44:20;;;;;;;6.22;3.15;;;4.40;99.90;;;;;;5012084;28;20029;-83
2021/01/04 10:46:56;;;;;;;5.82;3.45;;;4.30;99.90;;;;;;5001217;28;20038;-81
2021/01/04 10:49:28;;;;;;;4.38;3.00;;;4.20;99.90;;;;;;4989690;28;20034;-82
2021/01/04 10:51:55;;;;;;;9.85;3.15;;;4.30;99.90;;;;;;4999370;28;20041;-83
2021/01/04 10:54:42;;;;;;;8.05;3.35;;;4.20;99.90;;;;;;5002983;28;20034;-82
2021/01/04 10:57:40;;;;;;;6.75;3.22;;;4.10;99.90;;;;;;5003306;28;20038;-84
2021/01/04 11:00:15;;;;;;;;;;;4.20;99.90;;;;;;5001333;28;20089;-80
2021/01/04 11:02:46;;;;;;;4.88;2.88;;;4.30;99.90;;;;;;5006423;28;19924;-85
2021/01/04 11:05:16;;;;;;;4.97;2.90;;;4.20;99.90;;;;;;5010291;28;20049;-85
2021/01/04 11:07:42;;;;;;;8.13;3.40;;;4.20;99.90;;;;;;5006268;28;20080;-84
2021/01/04 11:10:27;;;;;;;5.32;3.03;;;4.30;99.90;;;;;;5014567;28;20454;-84
2021/01/04 11:12:58;;;;;;;4.68;2.90;;;4.40;99.90;;;;;;5008463;28;20030;-84
2021/01/04 11:15:34;;;;;;;3.97;2.92;;;4.30;99.90;;;;;;5006011;28;20053;-84
2021/01/04 11:18:01;;;;;;;7.75;2.58;;;4.30;99.90;;;;;;5016866;28;20042;-83
2021/01/04 11:20:28;;;;;;;3.97;2.50;;;4.30;99.90;;;;;;5023328;28;20057;-82
2021/01/04 11:23:13;;;;;;;5.47;2.42;;;4.20;99.90;;;;;;5032748;28;20014;-83
2021/01/04 11:25:45;;;;;;;3.58;3.00;;;4.30;99.90;;;;;;5033535;28;20110;-81
2021/01/04 11:28:12;;;;;;;2.92;2.63;;;4.30;99.90;;;;;;5033242;28;20025;-82
2021/01/04 11:30:38;;;;;;;4.70;3.13;;;4.30;99.90;;;;;;5031990;28;20034;-81
2021/01/04 11:33:04;;;;;;;5.80;2.78;;;4.40;99.90;;;;;;5032517;28;20033;-84
2021/01/04 11:35:34;;;;;;;2.80;2.03;;;4.40;99.90;;;;;;5017423;28;20092;-84
2021/01/04 11:38:04;;;;;;;5.20;2.55;;;4.40;99.90;;;;;;5003268;28;20161;-84
2021/01/04 11:40:31;;;;;;;3.45;2.67;;;4.30;99.90;;;;;;5011255;28;20564;-83
2021/01/04 11:42:57;;;;;;;3.95;2.83;;;4.20;99.90;;;;;;5019590;28;20112;-83
2021/01/04 11:45:22;;;;;;;5.50;2.58;;;4.10;99.90;;;;;;5006023;28;20543;-85
2021/01/04 11:47:48;;;;;;;3.60;2.13;;;4.10;99.90;;;;;;5023506;28;20394;-83
2021/01/04 11:50:18;;;;;;;3.88;2.75;;;4.20;99.90;;;;;;5011930;28;20052;-82
2021/01/04 11:52:46;;;;;;;7.32;3.00;;;4.20;99.90;;;;;;5004688;28;20034;-83
2021/01/04 11:55:13;;;;;;;4.90;3.08;;;4.30;99.90;;;;;;5014755;28;20030;-85
2021/01/04 11:57:40;;;;;;;8.00;2.75;;;4.10;99.90;;;;;;5013116;28;20033;-84
2021/01/04 12:00:12;;;;;;;4.43;2.33;;;4.00;99.90;;;;;;5013474;28;20026;-84
2021/01/04 12:02:37;;;;;;;9.15;2.47;;;4.10;99.90;;;;;;5010476;28;20058;-83
2021/01/04 12:05:05;;;;;;;3.92;2.45;;;4.10;99.90;;;;;;5009820;28;20432;-83
2021/01/04 12:07:31;;;;;;;5.55;3.53;;;4.20;99.90;;;;;;5005973;28;20018;-82
2021/01/04 12:09:56;;;;;;;6.68;2.78;;;4.20;99.90;;;;;;5015047;28;20117;-83
2021/01/04 12:12:23;;;;;;;3.13;2.40;;;4.10;99.90;;;;;;5012858;28;20023;-83
2021/01/04 12:14:48;;;;;;;3.70;2.47;;;4.20;99.90;;;;;;5016694;28;20030;-83
2021/01/04 12:17:15;;;;;;;3.42;2.50;;;4.20;99.90;;;;;;5011170;28;20034;-84
2021/01/04 12:19:41;;;;;;;4.05;2.40;;;4.10;99.90;;;;;;5017543;28;20041;-83
2021/01/04 12:22:11;;;;;;;6.47;2.55;;;4.00;99.90;;;;;;5014624;28;20026;-83
2021/01/04 12:24:39;;;;;;;3.42;2.40;;;4.00;99.90;;;;;;5014789;28;20053;-81
2021/01/04 12:27:06;;;;;;;4.70;2.45;;;4.00;99.90;;;;;;5013738;28;20109;-81
2021/01/04 12:29:33;;;;;;;4.95;1.95;;;4.10;99.90;;;;;;5021427;28;20034;-82
2021/01/04 12:32:03;;;;;;;2.63;2.05;;;4.10;99.90;;;;;;5020325;28;20494;-82
2021/01/04 12:34:30;;;;;;;8.38;2.67;;;4.10;99.90;;;;;;5017512;28;20037;-80
2021/01/04 12:36:56;;;;;;;2.03;1.83;;;4.10;99.90;;;;;;4998271;28;20057;-81
2021/01/04 12:39:21;;;;;;;4.25;2.00;;;4.20;99.90;;;;;;5017596;28;20034;-82
2021/01/04 12:41:48;;;;;;;4.40;2.22;;;4.10;99.90;;;;;;5018267;28;20387;-83
2021/01/04 12:44:15;;;;;;;4.30;2.30;;;4.10;99.90;;;;;;5020631;28;20025;-82
2021/01/04 12:46:42;;;;;;;6.45;2.47;;;4.00;99.90;;;;;;5020896;28;20072;-82
2021/01/04 12:49:08;;;;;;;2.35;1.88;;;4.00;99.90;;;;;;5035378;28;20085;-79
2021/01/04 12:51:33;;;;;;;4.20;2.03;;;4.10;99.90;;;;;;5036284;28;20046;-81
2021/01/04 12:54:18;;;;;;;2.35;2.15;;;4.10;99.90;;;;;;5035523;28;20029;-83
2021/01/04 12:56:46;;;;;;;4.25;2.08;;;4.10;99.90;;;;;;5033118;28;20010;-81
2021/01/04 12:59:12;;;;;;;5.15;1.83;;;4.10;99.90;;;;;;5033094;28;20016;-82
2021/01/04 13:01:42;;;;;;;3.78;2.05;;;4.00;99.90;;;;;;5031296;28;20529;-82
2021/01/04 13:04:07;;;;;;;6.68;2.15;;;4.00;99.90;;;;;;5012199;28;20029;-85
2021/01/04 13:06:33;;;;;;;3.40;1.67;;;4.00;99.90;;;;;;5008396;28;20022;-84
2021/01/04 13:09:01;;;;;;;2.50;1.83;;;4.00;99.90;;;;;;5047487;28;20038;-81
2021/01/04 13:11:27;;;;;;;3.45;2.25;;;4.00;99.90;;;;;;5021229;28;20460;-82
2021/01/04 13:13:53;;;;;;;3.65;1.98;;;4.00;99.90;;;;;;5006018;28;20034;-81
2021/01/04 13:16:18;;;;;;;3.05;2.20;;;4.10;99.90;;;;;;4992422;28;20162;-81
2021/01/04 13:18:44;;;;;;;2.90;1.98;;;4.10;99.90;;;;;;5015411;28;20550;-83
2021/01/04 13:21:20;;;;;;;3.38;2.28;;;4.10;99.90;;;;;;5005813;28;20026;-78
2021/01/04 13:23:47;;;;;;;2.63;1.65;;;4.10;99.90;;;;;;5011558;28;20038;-79
2021/01/04 13:26:13;;;;;;;1.70;1.42;;;4.20;99.90;;;;;;5015961;28;20044;-80
2021/01/04 13:28:40;;;;;;;5.88;3.03;;;4.10;99.90;;;;;;5012234;28;20038;-82
2021/01/04 13:31:06;;;;;;;4.80;1.50;;;4.00;99.90;;;;;;4996194;28;20116;-78
2021/01/04 13:33:31;;;;;;;2.30;1.70;;;4.00;99.90;;;;;;5010951;28;20188;-77
2021/01/04 13:35:57;;;;;;;3.55;1.50;;;4.00;99.90;;;;;;5012244;28;20126;-79
2021/01/04 13:38:23;;;;;;;2.47;2.00;;;3.90;99.90;;;;;;5006771;28;20052;-80
2021/01/04 13:40:48;;;;;;;2.67;1.80;;;3.90;99.90;;;;;;5000125;28;20195;-80
2021/01/04 13:43:14;;;;;;;5.90;1.85;;;3.90;99.90;;;;;;5002588;28;20030;-81
2021/01/04 13:45:41;;;;;;;6.25;3.05;;;3.80;99.90;;;;;;5009522;28;20052;-81